sensor_id;sensor_type;location;lat;lon;timestamp;temperature;humidity
60039;DHT22;45916;52.734;6.544;2023-08-06T00:00:23;14.20;99.90
60039;DHT22;45916;52.734;6.544;2023-08-06T00:02:49;14.20;99.90
60039;DHT22;45916;52.734;6.544;2023-08-06T00:05:15;14.20;99.90
60039;DHT22;45916;52.734;6.544;2023-08-06T00:07:49;14.20;99.90
60039;DHT22;45916;52.734;6.544;2023-08-06T00:10:16;14.20;99.90
60039;DHT22;45916;52.734;6.544;2023-08-06T00:12:43;14.20;99.90
60039;DHT22;45916;52.734;6.544;2023-08-06T00:15:10;14.20;99.90
60039;DHT22;45916;52.734;6.544;2023-08-06T00:17:35;14.20;99.90
60039;DHT22;45916;52.734;6.544;2023-08-06T00:20:02;14.10;99.90
60039;DHT22;45916;52.734;6.544;2023-08-06T00:22:39;14.20;99.90
60039;DHT22;45916;52.734;6.544;2023-08-06T00:25:05;14.10;99.90
60039;DHT22;45916;52.734;6.544;2023-08-06T00:27:31;14.10;99.90
60039;DHT22;45916;52.734;6.544;2023-08-06T00:29:58;14.10;99.90
60039;DHT22;45916;52.734;6.544;2023-08-06T00:32:24;14.10;99.90
60039;DHT22;45916;52.734;6.544;2023-08-06T00:34:50;14.10;99.90
60039;DHT22;45916;52.734;6.544;2023-08-06T00:37:18;14.10;99.90
60039;DHT22;45916;52.734;6.544;2023-08-06T00:39:44;14.10;99.90
60039;DHT22;45916;52.734;6.544;2023-08-06T00:42:11;14.00;99.90
60039;DHT22;45916;52.734;6.544;2023-08-06T00:44:37;14.00;99.90
60039;DHT22;45916;52.734;6.544;2023-08-06T00:47:04;14.00;99.90
60039;DHT22;45916;52.734;6.544;2023-08-06T00:49:30;14.00;99.90
60039;DHT22;45916;52.734;6.544;2023-08-06T00:51:56;13.90;99.90
60039;DHT22;45916;52.734;6.544;2023-08-06T00:54:23;13.80;99.90
60039;DHT22;45916;52.734;6.544;2023-08-06T00:56:50;13.70;99.90
60039;DHT22;45916;52.734;6.544;2023-08-06T00:59:16;13.70;99.90
60039;DHT22;45916;52.734;6.544;2023-08-06T01:01:41;13.70;99.90
60039;DHT22;45916;52.734;6.544;2023-08-06T01:04:07;13.60;99.90
60039;DHT22;45916;52.734;6.544;2023-08-06T01:06:50;13.60;99.90
60039;DHT22;45916;52.734;6.544;2023-08-06T01:12:22;13.50;99.90
60039;DHT22;45916;52.734;6.544;2023-08-06T01:15:00;13.50;99.90
60039;DHT22;45916;52.734;6.544;2023-08-06T01:17:30;13.40;99.90
60039;DHT22;45916;52.734;6.544;2023-08-06T01:19:56;13.50;99.90
60039;DHT22;45916;52.734;6.544;2023-08-06T01:22:22;13.40;99.90
60039;DHT22;45916;52.734;6.544;2023-08-06T01:24:50;13.40;99.90
60039;DHT22;45916;52.734;6.544;2023-08-06T01:32:35;13.40;99.90
60039;DHT22;45916;52.734;6.544;2023-08-06T01:35:04;13.40;99.90
60039;DHT22;45916;52.734;6.544;2023-08-06T01:37:31;13.40;99.90
60039;DHT22;45916;52.734;6.544;2023-08-06T01:39:57;13.40;99.90
60039;DHT22;45916;52.734;6.544;2023-08-06T01:42:23;13.40;99.90
60039;DHT22;45916;52.734;6.544;2023-08-06T01:44:49;13.40;99.90
60039;DHT22;45916;52.734;6.544;2023-08-06T01:47:14;13.40;99.90
60039;DHT22;45916;52.734;6.544;2023-08-06T01:49:40;13.50;99.90
60039;DHT22;45916;52.734;6.544;2023-08-06T01:52:06;13.50;99.90
60039;DHT22;45916;52.734;6.544;2023-08-06T01:54:32;13.50;99.90
60039;DHT22;45916;52.734;6.544;2023-08-06T01:56:58;13.50;99.90
60039;DHT22;45916;52.734;6.544;2023-08-06T01:59:24;13.60;99.90
60039;DHT22;45916;52.734;6.544;2023-08-06T02:01:49;13.60;99.90
60039;DHT22;45916;52.734;6.544;2023-08-06T02:04:15;13.60;99.90
60039;DHT22;45916;52.734;6.544;2023-08-06T02:06:41;13.60;99.90
60039;DHT22;45916;52.734;6.544;2023-08-06T02:09:06;13.60;99.90
60039;DHT22;45916;52.734;6.544;2023-08-06T02:11:32;13.60;99.90
60039;DHT22;45916;52.734;6.544;2023-08-06T02:13:58;13.60;99.90
60039;DHT22;45916;52.734;6.544;2023-08-06T02:16:23;13.60;99.90
60039;DHT22;45916;52.734;6.544;2023-08-06T02:18:49;13.60;99.90
60039;DHT22;45916;52.734;6.544;2023-08-06T02:21:14;13.60;99.90
60039;DHT22;45916;52.734;6.544;2023-08-06T02:23:40;13.60;99.90
60039;DHT22;45916;52.734;6.544;2023-08-06T02:26:06;13.60;99.90
60039;DHT22;45916;52.734;6.544;2023-08-06T02:28:32;13.50;99.90
60039;DHT22;45916;52.734;6.544;2023-08-06T02:30:58;13.50;99.90
60039;DHT22;45916;52.734;6.544;2023-08-06T02:33:23;13.60;99.90
60039;DHT22;45916;52.734;6.544;2023-08-06T02:35:49;13.60;99.90
60039;DHT22;45916;52.734;6.544;2023-08-06T02:38:15;13.60;99.90
60039;DHT22;45916;52.734;6.544;2023-08-06T02:40:47;13.60;99.90
60039;DHT22;45916;52.734;6.544;2023-08-06T02:43:13;13.60;99.90
60039;DHT22;45916;52.734;6.544;2023-08-06T02:45:39;13.60;99.90
60039;DHT22;45916;52.734;6.544;2023-08-06T02:48:05;13.50;99.90
60039;DHT22;45916;52.734;6.544;2023-08-06T02:50:31;13.50;99.90
60039;DHT22;45916;52.734;6.544;2023-08-06T02:52:56;13.40;99.90
60039;DHT22;45916;52.734;6.544;2023-08-06T02:55:22;13.40;99.90
60039;DHT22;45916;52.734;6.544;2023-08-06T02:57:48;13.40;99.90
60039;DHT22;45916;52.734;6.544;2023-08-06T03:00:13;13.40;99.90
60039;DHT22;45916;52.734;6.544;2023-08-06T03:02:39;13.40;99.90
60039;DHT22;45916;52.734;6.544;2023-08-06T03:05:05;13.40;99.90
60039;DHT22;45916;52.734;6.544;2023-08-06T03:07:31;13.30;99.90
60039;DHT22;45916;52.734;6.544;2023-08-06T03:09:59;13.40;99.90
60039;DHT22;45916;52.734;6.544;2023-08-06T03:12:27;13.30;99.90
60039;DHT22;45916;52.734;6.544;2023-08-06T03:14:52;13.30;99.90
60039;DHT22;45916;52.734;6.544;2023-08-06T03:17:18;13.20;99.90
60039;DHT22;45916;52.734;6.544;2023-08-06T03:19:44;13.20;99.90
60039;DHT22;45916;52.734;6.544;2023-08-06T03:22:10;13.10;99.90
60039;DHT22;45916;52.734;6.544;2023-08-06T03:24:35;13.00;99.90
60039;DHT22;45916;52.734;6.544;2023-08-06T03:27:01;13.00;99.90
60039;DHT22;45916;52.734;6.544;2023-08-06T03:29:27;13.00;99.90
60039;DHT22;45916;52.734;6.544;2023-08-06T03:31:52;13.00;99.90
60039;DHT22;45916;52.734;6.544;2023-08-06T03:34:18;12.90;99.90
60039;DHT22;45916;52.734;6.544;2023-08-06T03:36:44;13.00;99.90
60039;DHT22;45916;52.734;6.544;2023-08-06T03:39:10;13.00;99.90
60039;DHT22;45916;52.734;6.544;2023-08-06T03:41:36;13.00;99.90
60039;DHT22;45916;52.734;6.544;2023-08-06T03:44:02;13.00;99.90
60039;DHT22;45916;52.734;6.544;2023-08-06T03:46:29;13.00;99.90
60039;DHT22;45916;52.734;6.544;2023-08-06T03:49:01;13.00;99.90
60039;DHT22;45916;52.734;6.544;2023-08-06T03:51:27;13.00;99.90
60039;DHT22;45916;52.734;6.544;2023-08-06T03:53:53;13.00;99.90
60039;DHT22;45916;52.734;6.544;2023-08-06T03:56:18;13.10;99.90
60039;DHT22;45916;52.734;6.544;2023-08-06T03:58:44;13.10;99.90
60039;DHT22;45916;52.734;6.544;2023-08-06T04:01:10;13.20;99.90
60039;DHT22;45916;52.734;6.544;2023-08-06T04:03:35;13.20;99.90
60039;DHT22;45916;52.734;6.544;2023-08-06T04:06:04;13.30;99.90
60039;DHT22;45916;52.734;6.544;2023-08-06T04:08:30;13.30;99.90
60039;DHT22;45916;52.734;6.544;2023-08-06T04:10:56;13.40;99.90
60039;DHT22;45916;52.734;6.544;2023-08-06T04:13:21;13.40;99.90
60039;DHT22;45916;52.734;6.544;2023-08-06T04:15:47;13.40;99.90
60039;DHT22;45916;52.734;6.544;2023-08-06T04:18:13;13.50;99.90
60039;DHT22;45916;52.734;6.544;2023-08-06T04:20:47;13.50;99.90
60039;DHT22;45916;52.734;6.544;2023-08-06T04:23:14;13.50;99.90
60039;DHT22;45916;52.734;6.544;2023-08-06T04:25:40;13.60;99.90
60039;DHT22;45916;52.734;6.544;2023-08-06T04:28:07;13.60;99.90
60039;DHT22;45916;52.734;6.544;2023-08-06T04:30:33;13.60;99.90
60039;DHT22;45916;52.734;6.544;2023-08-06T04:32:58;13.70;99.90
60039;DHT22;45916;52.734;6.544;2023-08-06T04:35:24;13.70;99.90
60039;DHT22;45916;52.734;6.544;2023-08-06T04:37:50;13.70;99.90
60039;DHT22;45916;52.734;6.544;2023-08-06T04:40:16;13.80;99.90
60039;DHT22;45916;52.734;6.544;2023-08-06T04:42:41;13.80;99.90
60039;DHT22;45916;52.734;6.544;2023-08-06T04:45:07;13.80;99.90
60039;DHT22;45916;52.734;6.544;2023-08-06T04:47:33;13.90;99.90
60039;DHT22;45916;52.734;6.544;2023-08-06T04:49:59;13.90;99.90
60039;DHT22;45916;52.734;6.544;2023-08-06T04:52:24;13.90;99.90
60039;DHT22;45916;52.734;6.544;2023-08-06T04:54:54;14.00;99.90
60039;DHT22;45916;52.734;6.544;2023-08-06T04:57:19;14.00;99.90
60039;DHT22;45916;52.734;6.544;2023-08-06T04:59:45;14.10;99.90
60039;DHT22;45916;52.734;6.544;2023-08-06T05:02:11;14.10;99.90
60039;DHT22;45916;52.734;6.544;2023-08-06T05:04:37;14.20;99.90
60039;DHT22;45916;52.734;6.544;2023-08-06T05:07:03;14.20;99.90
60039;DHT22;45916;52.734;6.544;2023-08-06T05:09:29;14.20;99.90
60039;DHT22;45916;52.734;6.544;2023-08-06T05:11:54;14.30;99.90
60039;DHT22;45916;52.734;6.544;2023-08-06T05:14:20;14.40;99.90
60039;DHT22;45916;52.734;6.544;2023-08-06T05:16:46;14.40;99.90
60039;DHT22;45916;52.734;6.544;2023-08-06T05:19:11;14.60;99.90
60039;DHT22;45916;52.734;6.544;2023-08-06T05:21:37;14.70;99.90
60039;DHT22;45916;52.734;6.544;2023-08-06T05:24:03;14.70;99.90
60039;DHT22;45916;52.734;6.544;2023-08-06T05:26:28;14.80;99.90
60039;DHT22;45916;52.734;6.544;2023-08-06T05:28:54;14.90;99.90
60039;DHT22;45916;52.734;6.544;2023-08-06T05:31:20;15.10;99.90
60039;DHT22;45916;52.734;6.544;2023-08-06T05:33:45;15.20;99.90
60039;DHT22;45916;52.734;6.544;2023-08-06T05:36:11;15.40;99.90
60039;DHT22;45916;52.734;6.544;2023-08-06T05:38:37;15.60;99.90
60039;DHT22;45916;52.734;6.544;2023-08-06T05:41:03;15.80;99.90
60039;DHT22;45916;52.734;6.544;2023-08-06T05:43:29;16.00;99.90
60039;DHT22;45916;52.734;6.544;2023-08-06T05:45:56;16.20;99.90
60039;DHT22;45916;52.734;6.544;2023-08-06T05:48:22;16.30;99.90
60039;DHT22;45916;52.734;6.544;2023-08-06T05:50:51;16.50;99.90
60039;DHT22;45916;52.734;6.544;2023-08-06T05:53:17;16.50;99.90
60039;DHT22;45916;52.734;6.544;2023-08-06T05:55:43;16.60;99.90
60039;DHT22;45916;52.734;6.544;2023-08-06T05:58:09;16.80;99.90
60039;DHT22;45916;52.734;6.544;2023-08-06T06:00:34;16.80;99.90
60039;DHT22;45916;52.734;6.544;2023-08-06T06:03:01;16.90;99.90
60039;DHT22;45916;52.734;6.544;2023-08-06T06:05:27;16.90;99.90
60039;DHT22;45916;52.734;6.544;2023-08-06T06:07:53;16.90;99.90
60039;DHT22;45916;52.734;6.544;2023-08-06T06:10:19;16.90;99.90
60039;DHT22;45916;52.734;6.544;2023-08-06T06:12:44;17.00;99.90
60039;DHT22;45916;52.734;6.544;2023-08-06T06:15:10;17.00;99.90
60039;DHT22;45916;52.734;6.544;2023-08-06T06:17:36;17.00;99.90
60039;DHT22;45916;52.734;6.544;2023-08-06T06:20:01;17.00;99.90
60039;DHT22;45916;52.734;6.544;2023-08-06T06:22:29;16.90;99.90
60039;DHT22;45916;52.734;6.544;2023-08-06T06:24:55;16.90;99.90
60039;DHT22;45916;52.734;6.544;2023-08-06T06:27:21;16.90;99.90
60039;DHT22;45916;52.734;6.544;2023-08-06T06:29:46;16.80;99.90
60039;DHT22;45916;52.734;6.544;2023-08-06T06:32:12;16.80;99.90
60039;DHT22;45916;52.734;6.544;2023-08-06T06:34:38;16.80;99.90
60039;DHT22;45916;52.734;6.544;2023-08-06T06:37:04;16.80;99.90
60039;DHT22;45916;52.734;6.544;2023-08-06T06:39:30;17.00;99.90
60039;DHT22;45916;52.734;6.544;2023-08-06T06:41:55;17.10;99.90
60039;DHT22;45916;52.734;6.544;2023-08-06T06:44:21;17.30;99.90
60039;DHT22;45916;52.734;6.544;2023-08-06T06:46:47;17.50;99.90
60039;DHT22;45916;52.734;6.544;2023-08-06T06:49:12;17.70;99.90
60039;DHT22;45916;52.734;6.544;2023-08-06T06:51:38;17.70;99.90
60039;DHT22;45916;52.734;6.544;2023-08-06T06:54:04;17.80;99.90
60039;DHT22;45916;52.734;6.544;2023-08-06T06:56:29;18.00;99.90
60039;DHT22;45916;52.734;6.544;2023-08-06T06:58:55;18.20;99.90
60039;DHT22;45916;52.734;6.544;2023-08-06T07:01:21;18.30;99.90
60039;DHT22;45916;52.734;6.544;2023-08-06T07:03:47;18.40;99.90
60039;DHT22;45916;52.734;6.544;2023-08-06T07:06:12;18.50;99.90
60039;DHT22;45916;52.734;6.544;2023-08-06T07:08:38;18.60;99.90
60039;DHT22;45916;52.734;6.544;2023-08-06T07:11:05;18.60;99.90
60039;DHT22;45916;52.734;6.544;2023-08-06T07:13:32;18.50;99.90
60039;DHT22;45916;52.734;6.544;2023-08-06T07:15:58;18.40;99.90
60039;DHT22;45916;52.734;6.544;2023-08-06T07:18:24;18.30;99.90
60039;DHT22;45916;52.734;6.544;2023-08-06T07:20:51;18.00;99.90
60039;DHT22;45916;52.734;6.544;2023-08-06T07:23:18;17.90;99.90
60039;DHT22;45916;52.734;6.544;2023-08-06T07:25:43;17.80;99.90
60039;DHT22;45916;52.734;6.544;2023-08-06T07:28:10;17.80;99.90
60039;DHT22;45916;52.734;6.544;2023-08-06T07:30:39;17.90;99.90
60039;DHT22;45916;52.734;6.544;2023-08-06T07:33:05;18.00;99.90
60039;DHT22;45916;52.734;6.544;2023-08-06T07:35:30;18.10;99.90
60039;DHT22;45916;52.734;6.544;2023-08-06T07:37:56;18.20;99.90
60039;DHT22;45916;52.734;6.544;2023-08-06T07:40:22;18.30;99.90
60039;DHT22;45916;52.734;6.544;2023-08-06T07:42:47;18.20;99.90
60039;DHT22;45916;52.734;6.544;2023-08-06T07:45:14;18.20;99.90
60039;DHT22;45916;52.734;6.544;2023-08-06T07:47:40;18.30;99.90
60039;DHT22;45916;52.734;6.544;2023-08-06T07:50:06;18.40;99.90
60039;DHT22;45916;52.734;6.544;2023-08-06T07:52:32;18.60;99.90
60039;DHT22;45916;52.734;6.544;2023-08-06T07:54:58;18.80;99.90
60039;DHT22;45916;52.734;6.544;2023-08-06T07:57:24;19.00;99.90
60039;DHT22;45916;52.734;6.544;2023-08-06T07:59:49;19.20;99.90
60039;DHT22;45916;52.734;6.544;2023-08-06T08:02:16;19.30;99.90
60039;DHT22;45916;52.734;6.544;2023-08-06T08:04:42;19.40;99.90
60039;DHT22;45916;52.734;6.544;2023-08-06T08:07:09;19.50;99.90
60039;DHT22;45916;52.734;6.544;2023-08-06T08:09:35;19.60;99.90
60039;DHT22;45916;52.734;6.544;2023-08-06T08:12:01;19.70;99.90
60039;DHT22;45916;52.734;6.544;2023-08-06T08:14:28;19.80;99.90
60039;DHT22;45916;52.734;6.544;2023-08-06T08:16:54;19.80;99.90
60039;DHT22;45916;52.734;6.544;2023-08-06T08:19:20;19.70;99.90
60039;DHT22;45916;52.734;6.544;2023-08-06T08:21:46;19.70;99.90
60039;DHT22;45916;52.734;6.544;2023-08-06T08:24:12;19.60;99.90
60039;DHT22;45916;52.734;6.544;2023-08-06T08:26:38;19.70;99.90
60039;DHT22;45916;52.734;6.544;2023-08-06T08:29:03;19.80;99.90
60039;DHT22;45916;52.734;6.544;2023-08-06T08:31:29;20.00;99.90
60039;DHT22;45916;52.734;6.544;2023-08-06T08:33:55;20.10;99.90
60039;DHT22;45916;52.734;6.544;2023-08-06T08:36:21;20.10;99.90
60039;DHT22;45916;52.734;6.544;2023-08-06T08:38:47;20.30;99.90
60039;DHT22;45916;52.734;6.544;2023-08-06T08:41:13;20.40;99.90
60039;DHT22;45916;52.734;6.544;2023-08-06T08:43:40;20.60;99.90
60039;DHT22;45916;52.734;6.544;2023-08-06T08:46:09;20.70;99.90
60039;DHT22;45916;52.734;6.544;2023-08-06T08:48:35;20.90;99.90
60039;DHT22;45916;52.734;6.544;2023-08-06T08:51:02;21.10;99.90
60039;DHT22;45916;52.734;6.544;2023-08-06T08:53:28;21.30;99.90
60039;DHT22;45916;52.734;6.544;2023-08-06T08:55:54;21.50;99.90
60039;DHT22;45916;52.734;6.544;2023-08-06T08:58:20;21.50;99.90
60039;DHT22;45916;52.734;6.544;2023-08-06T09:00:46;21.40;99.90
60039;DHT22;45916;52.734;6.544;2023-08-06T09:03:14;21.30;99.90
60039;DHT22;45916;52.734;6.544;2023-08-06T09:05:44;21.40;99.90
60039;DHT22;45916;52.734;6.544;2023-08-06T09:08:15;21.30;99.90
60039;DHT22;45916;52.734;6.544;2023-08-06T09:10:43;21.30;99.90
60039;DHT22;45916;52.734;6.544;2023-08-06T09:13:09;21.30;99.90
60039;DHT22;45916;52.734;6.544;2023-08-06T09:15:34;21.50;99.90
60039;DHT22;45916;52.734;6.544;2023-08-06T09:18:09;21.90;99.90
60039;DHT22;45916;52.734;6.544;2023-08-06T09:20:34;22.20;99.90
60039;DHT22;45916;52.734;6.544;2023-08-06T09:23:09;22.40;99.90
60039;DHT22;45916;52.734;6.544;2023-08-06T09:25:38;22.60;99.90
60039;DHT22;45916;52.734;6.544;2023-08-06T09:28:05;22.80;99.90
60039;DHT22;45916;52.734;6.544;2023-08-06T09:30:32;23.00;99.90
60039;DHT22;45916;52.734;6.544;2023-08-06T09:32:59;23.20;99.90
60039;DHT22;45916;52.734;6.544;2023-08-06T09:35:27;23.40;99.90
60039;DHT22;45916;52.734;6.544;2023-08-06T09:37:53;23.60;99.90
60039;DHT22;45916;52.734;6.544;2023-08-06T09:40:31;23.80;99.90
60039;DHT22;45916;52.734;6.544;2023-08-06T09:42:58;23.90;99.90
60039;DHT22;45916;52.734;6.544;2023-08-06T09:45:30;24.10;99.90
60039;DHT22;45916;52.734;6.544;2023-08-06T09:47:57;24.40;99.90
60039;DHT22;45916;52.734;6.544;2023-08-06T09:50:29;24.60;99.90
60039;DHT22;45916;52.734;6.544;2023-08-06T09:52:56;24.80;99.90
60039;DHT22;45916;52.734;6.544;2023-08-06T09:55:23;24.90;99.90
60039;DHT22;45916;52.734;6.544;2023-08-06T09:57:51;25.00;99.90
60039;DHT22;45916;52.734;6.544;2023-08-06T10:00:17;25.20;99.90
60039;DHT22;45916;52.734;6.544;2023-08-06T10:02:43;25.20;99.90
60039;DHT22;45916;52.734;6.544;2023-08-06T10:05:10;25.10;99.90
60039;DHT22;45916;52.734;6.544;2023-08-06T10:07:37;24.90;99.90
60039;DHT22;45916;52.734;6.544;2023-08-06T10:10:05;24.80;99.90
60039;DHT22;45916;52.734;6.544;2023-08-06T10:12:44;24.80;99.90
60039;DHT22;45916;52.734;6.544;2023-08-06T10:15:15;24.90;99.90
60039;DHT22;45916;52.734;6.544;2023-08-06T10:17:42;24.90;99.90
60039;DHT22;45916;52.734;6.544;2023-08-06T10:20:09;24.90;99.90
60039;DHT22;45916;52.734;6.544;2023-08-06T10:22:35;25.10;99.90
60039;DHT22;45916;52.734;6.544;2023-08-06T10:25:02;25.70;99.90
60039;DHT22;45916;52.734;6.544;2023-08-06T10:27:52;26.60;99.90
60039;DHT22;45916;52.734;6.544;2023-08-06T10:33:03;27.20;99.70
60039;DHT22;45916;52.734;6.544;2023-08-06T10:35:44;27.50;98.60
60039;DHT22;45916;52.734;6.544;2023-08-06T10:38:15;27.80;98.00
60039;DHT22;45916;52.734;6.544;2023-08-06T10:41:01;27.80;94.90
60039;DHT22;45916;52.734;6.544;2023-08-06T10:43:34;27.40;95.90
60039;DHT22;45916;52.734;6.544;2023-08-06T10:46:09;27.30;96.20
60039;DHT22;45916;52.734;6.544;2023-08-06T10:51:02;26.90;95.40
60039;DHT22;45916;52.734;6.544;2023-08-06T10:53:29;26.90;96.60
60039;DHT22;45916;52.734;6.544;2023-08-06T10:55:54;27.10;96.80
60039;DHT22;45916;52.734;6.544;2023-08-06T10:58:20;27.70;96.10
60039;DHT22;45916;52.734;6.544;2023-08-06T11:00:46;28.50;94.80
60039;DHT22;45916;52.734;6.544;2023-08-06T11:03:12;29.10;92.50
60039;DHT22;45916;52.734;6.544;2023-08-06T11:05:38;29.50;90.20
60039;DHT22;45916;52.734;6.544;2023-08-06T11:08:04;30.10;88.00
60039;DHT22;45916;52.734;6.544;2023-08-06T11:10:33;30.60;82.20
60039;DHT22;45916;52.734;6.544;2023-08-06T11:13:03;30.80;74.80
60039;DHT22;45916;52.734;6.544;2023-08-06T11:15:30;30.60;72.40
60039;DHT22;45916;52.734;6.544;2023-08-06T11:17:55;30.20;73.20
60039;DHT22;45916;52.734;6.544;2023-08-06T11:20:21;29.60;75.50
60039;DHT22;45916;52.734;6.544;2023-08-06T11:22:50;29.00;76.70
60039;DHT22;45916;52.734;6.544;2023-08-06T11:25:16;28.30;79.70
60039;DHT22;45916;52.734;6.544;2023-08-06T11:27:41;27.70;84.80
60039;DHT22;45916;52.734;6.544;2023-08-06T11:30:07;27.30;89.20
60039;DHT22;45916;52.734;6.544;2023-08-06T12:54:53;21.50;99.90
60039;DHT22;45916;52.734;6.544;2023-08-06T12:57:19;21.20;99.90
60039;DHT22;45916;52.734;6.544;2023-08-06T12:59:45;20.90;99.90
60039;DHT22;45916;52.734;6.544;2023-08-06T13:02:10;20.20;99.90
60039;DHT22;45916;52.734;6.544;2023-08-06T13:04:36;19.60;99.90
60039;DHT22;45916;52.734;6.544;2023-08-06T13:07:02;19.10;99.90
60039;DHT22;45916;52.734;6.544;2023-08-06T13:09:27;18.80;99.90
60039;DHT22;45916;52.734;6.544;2023-08-06T13:11:53;18.70;99.90
60039;DHT22;45916;52.734;6.544;2023-08-06T13:14:19;18.70;99.90
60039;DHT22;45916;52.734;6.544;2023-08-06T13:16:45;18.70;99.90
60039;DHT22;45916;52.734;6.544;2023-08-06T13:19:10;18.80;99.90
60039;DHT22;45916;52.734;6.544;2023-08-06T13:24:07;19.10;99.90
60039;DHT22;45916;52.734;6.544;2023-08-06T13:26:33;19.20;99.90
60039;DHT22;45916;52.734;6.544;2023-08-06T13:29:00;19.40;99.90
60039;DHT22;45916;52.734;6.544;2023-08-06T13:31:26;19.50;99.90
60039;DHT22;45916;52.734;6.544;2023-08-06T13:33:55;19.60;99.90
60039;DHT22;45916;52.734;6.544;2023-08-06T13:36:21;19.80;99.90
60039;DHT22;45916;52.734;6.544;2023-08-06T13:38:47;19.90;99.90
60039;DHT22;45916;52.734;6.544;2023-08-06T13:41:13;20.00;99.90
60039;DHT22;45916;52.734;6.544;2023-08-06T13:43:39;20.10;99.90
60039;DHT22;45916;52.734;6.544;2023-08-06T13:46:05;20.10;99.90
60039;DHT22;45916;52.734;6.544;2023-08-06T13:48:30;20.10;99.90
60039;DHT22;45916;52.734;6.544;2023-08-06T13:50:56;20.00;99.90
60039;DHT22;45916;52.734;6.544;2023-08-06T13:53:22;20.00;99.90
60039;DHT22;45916;52.734;6.544;2023-08-06T13:55:47;20.10;99.90
60039;DHT22;45916;52.734;6.544;2023-08-06T13:58:13;20.10;99.90
60039;DHT22;45916;52.734;6.544;2023-08-06T14:00:39;20.20;99.90
60039;DHT22;45916;52.734;6.544;2023-08-06T14:03:04;20.20;99.90
60039;DHT22;45916;52.734;6.544;2023-08-06T14:05:30;20.20;99.90
60039;DHT22;45916;52.734;6.544;2023-08-06T14:07:56;20.30;99.90
60039;DHT22;45916;52.734;6.544;2023-08-06T14:10:21;20.30;99.90
60039;DHT22;45916;52.734;6.544;2023-08-06T14:12:47;20.40;99.90
60039;DHT22;45916;52.734;6.544;2023-08-06T14:15:13;20.50;99.90
60039;DHT22;45916;52.734;6.544;2023-08-06T14:17:39;20.60;99.90
60039;DHT22;45916;52.734;6.544;2023-08-06T14:20:06;20.70;99.90
60039;DHT22;45916;52.734;6.544;2023-08-06T14:22:33;20.80;99.90
60039;DHT22;45916;52.734;6.544;2023-08-06T14:24:59;20.90;99.90
60039;DHT22;45916;52.734;6.544;2023-08-06T14:27:25;20.90;99.90
60039;DHT22;45916;52.734;6.544;2023-08-06T14:29:51;20.90;99.90
60039;DHT22;45916;52.734;6.544;2023-08-06T14:32:17;20.90;99.90
60039;DHT22;45916;52.734;6.544;2023-08-06T14:34:47;20.90;99.90
60039;DHT22;45916;52.734;6.544;2023-08-06T14:37:12;21.00;99.90
60039;DHT22;45916;52.734;6.544;2023-08-06T14:39:38;21.10;99.90
60039;DHT22;45916;52.734;6.544;2023-08-06T14:42:04;21.10;99.90
60039;DHT22;45916;52.734;6.544;2023-08-06T14:44:30;21.20;99.90
60039;DHT22;45916;52.734;6.544;2023-08-06T14:46:56;21.20;99.90
60039;DHT22;45916;52.734;6.544;2023-08-06T14:49:23;21.20;99.90
60039;DHT22;45916;52.734;6.544;2023-08-06T14:51:48;21.30;99.90
60039;DHT22;45916;52.734;6.544;2023-08-06T14:54:14;21.20;99.90
60039;DHT22;45916;52.734;6.544;2023-08-06T14:56:40;21.10;99.90
60039;DHT22;45916;52.734;6.544;2023-08-06T14:59:05;21.00;99.90
60039;DHT22;45916;52.734;6.544;2023-08-06T15:01:31;21.00;99.90
60039;DHT22;45916;52.734;6.544;2023-08-06T15:03:58;20.80;99.90
60039;DHT22;45916;52.734;6.544;2023-08-06T15:06:24;20.60;99.90
60039;DHT22;45916;52.734;6.544;2023-08-06T15:08:49;20.50;99.90
60039;DHT22;45916;52.734;6.544;2023-08-06T15:11:15;20.40;99.90
60039;DHT22;45916;52.734;6.544;2023-08-06T15:13:41;20.30;99.90
60039;DHT22;45916;52.734;6.544;2023-08-06T15:16:07;20.20;99.90
60039;DHT22;45916;52.734;6.544;2023-08-06T15:18:32;20.00;99.90
60039;DHT22;45916;52.734;6.544;2023-08-06T15:20:58;19.80;99.90
60039;DHT22;45916;52.734;6.544;2023-08-06T15:23:24;19.70;99.90
60039;DHT22;45916;52.734;6.544;2023-08-06T15:25:50;19.50;99.90
60039;DHT22;45916;52.734;6.544;2023-08-06T15:28:16;19.40;99.90
60039;DHT22;45916;52.734;6.544;2023-08-06T15:30:49;19.40;99.90
60039;DHT22;45916;52.734;6.544;2023-08-06T15:33:16;19.30;99.90
60039;DHT22;45916;52.734;6.544;2023-08-06T15:35:42;19.10;99.90
60039;DHT22;45916;52.734;6.544;2023-08-06T15:38:08;19.00;99.90
60039;DHT22;45916;52.734;6.544;2023-08-06T15:40:33;18.80;99.90
60039;DHT22;45916;52.734;6.544;2023-08-06T15:42:59;18.70;99.90
60039;DHT22;45916;52.734;6.544;2023-08-06T15:45:25;18.70;99.90
60039;DHT22;45916;52.734;6.544;2023-08-06T15:47:50;18.70;99.90
60039;DHT22;45916;52.734;6.544;2023-08-06T15:50:16;18.60;99.90
60039;DHT22;45916;52.734;6.544;2023-08-06T15:52:42;18.60;99.90
60039;DHT22;45916;52.734;6.544;2023-08-06T15:55:08;18.60;99.90
60039;DHT22;45916;52.734;6.544;2023-08-06T15:57:34;18.50;99.90
60039;DHT22;45916;52.734;6.544;2023-08-06T16:00:01;18.50;99.90
60039;DHT22;45916;52.734;6.544;2023-08-06T16:02:27;18.50;99.90
60039;DHT22;45916;52.734;6.544;2023-08-06T16:04:53;18.50;99.90
60039;DHT22;45916;52.734;6.544;2023-08-06T16:07:20;18.50;99.90
60039;DHT22;45916;52.734;6.544;2023-08-06T16:09:46;18.40;99.90
60039;DHT22;45916;52.734;6.544;2023-08-06T16:12:11;18.30;99.90
60039;DHT22;45916;52.734;6.544;2023-08-06T16:14:37;18.10;99.90
60039;DHT22;45916;52.734;6.544;2023-08-06T16:17:04;18.00;99.90
60039;DHT22;45916;52.734;6.544;2023-08-06T16:19:30;17.80;99.90
60039;DHT22;45916;52.734;6.544;2023-08-06T16:21:55;17.70;99.90
60039;DHT22;45916;52.734;6.544;2023-08-06T16:24:21;17.70;99.90
60039;DHT22;45916;52.734;6.544;2023-08-06T16:26:47;17.70;99.90
60039;DHT22;45916;52.734;6.544;2023-08-06T16:29:12;17.70;99.90
60039;DHT22;45916;52.734;6.544;2023-08-06T16:31:38;17.80;99.90
60039;DHT22;45916;52.734;6.544;2023-08-06T16:34:04;17.80;99.90
60039;DHT22;45916;52.734;6.544;2023-08-06T16:36:29;17.80;99.90
60039;DHT22;45916;52.734;6.544;2023-08-06T16:38:55;17.80;99.90
60039;DHT22;45916;52.734;6.544;2023-08-06T16:41:22;17.90;99.90
60039;DHT22;45916;52.734;6.544;2023-08-06T16:43:48;17.90;99.90
60039;DHT22;45916;52.734;6.544;2023-08-06T16:46:14;18.00;99.90
60039;DHT22;45916;52.734;6.544;2023-08-06T16:48:39;18.10;99.90
60039;DHT22;45916;52.734;6.544;2023-08-06T16:51:05;18.20;99.90
60039;DHT22;45916;52.734;6.544;2023-08-06T16:53:31;18.30;99.90
60039;DHT22;45916;52.734;6.544;2023-08-06T16:55:57;18.30;99.90
60039;DHT22;45916;52.734;6.544;2023-08-06T16:58:24;18.30;99.90
60039;DHT22;45916;52.734;6.544;2023-08-06T17:00:50;18.40;99.90
60039;DHT22;45916;52.734;6.544;2023-08-06T17:03:16;18.40;99.90